createdAt,value
2018-07-19T00:00:30.043Z,14.50
2018-07-19T00:03:03.395Z,14.00
2018-07-19T00:05:37.168Z,14.75
2018-07-19T00:08:08.787Z,14.25
2018-07-19T00:10:41.794Z,13.75
2018-07-19T00:13:13.503Z,15.25
2018-07-19T00:15:46.544Z,13.00
2018-07-19T00:18:26.344Z,14.00
2018-07-19T00:20:58.595Z,14.25
2018-07-19T00:23:32.342Z,14.50
2018-07-19T00:26:04.627Z,15.00
2018-07-19T00:28:35.583Z,16.00
2018-07-19T00:31:06.112Z,12.75
2018-07-19T00:33:37.338Z,14.50
2018-07-19T00:36:09.768Z,13.50
2018-07-19T00:38:42.175Z,15.25
2018-07-19T00:41:16.394Z,13.25
2018-07-19T00:43:51.022Z,15.00
2018-07-19T00:46:23.792Z,13.25
2018-07-19T00:48:57.318Z,14.50
2018-07-19T00:51:30.385Z,14.25
2018-07-19T00:54:03.871Z,12.75
2018-07-19T00:56:37.711Z,14.25
2018-07-19T00:59:09.575Z,14.00
2018-07-19T01:01:43.592Z,14.00
2018-07-19T01:04:16.729Z,14.50
2018-07-19T01:06:49.210Z,15.50
2018-07-19T01:09:22.472Z,17.00
2018-07-19T01:11:56.046Z,18.00
2018-07-19T01:14:30.004Z,16.75
2018-07-19T01:17:05.223Z,15.00
2018-07-19T01:22:29.408Z,12.25
2018-07-19T01:25:01.951Z,13.75
2018-07-19T01:27:32.313Z,15.75
2018-07-19T01:30:05.438Z,14.00
2018-07-19T01:32:36.843Z,15.75
2018-07-19T01:38:45.684Z,11.50
2018-07-19T01:41:45.003Z,12.75
2018-07-19T01:44:15.352Z,13.50
2018-07-19T01:46:46.746Z,16.25
2018-07-19T01:49:17.916Z,14.75
2018-07-19T01:51:51.753Z,14.00
2018-07-19T01:54:23.391Z,17.00
2018-07-19T01:56:54.900Z,16.75
2018-07-19T01:59:28.492Z,16.75
2018-07-19T02:02:00.338Z,17.00
2018-07-19T02:04:32.165Z,16.00
2018-07-19T02:07:02.796Z,16.25
2018-07-19T02:09:42.388Z,18.50
2018-07-19T02:12:12.695Z,18.75
2018-07-19T02:14:43.714Z,17.50
2018-07-19T02:17:15.245Z,17.75
2018-07-19T02:19:45.838Z,16.25
2018-07-19T02:22:18.758Z,16.50
2018-07-19T02:24:52.239Z,16.25
2018-07-19T02:27:22.678Z,17.25
2018-07-19T02:30:04.771Z,18.00
2018-07-19T02:32:38.952Z,17.50
2018-07-19T02:35:10.025Z,17.75
2018-07-19T02:40:12.064Z,19.00
2018-07-19T02:42:43.717Z,18.50
2018-07-19T02:45:18.493Z,17.50
2018-07-19T02:47:49.588Z,16.25
2018-07-19T02:52:56.051Z,17.00
2018-07-19T02:55:39.533Z,20.25
2018-07-19T02:58:12.038Z,17.00
2018-07-19T03:00:43.106Z,18.00
2018-07-19T03:03:18.823Z,17.50
2018-07-19T03:05:49.196Z,16.75
2018-07-19T03:08:20.493Z,16.75
2018-07-19T03:10:52.550Z,18.25
2018-07-19T03:13:23.028Z,16.00
2018-07-19T03:15:57.572Z,17.00
2018-07-19T03:18:28.996Z,19.25
2018-07-19T03:21:00.685Z,19.25
2018-07-19T03:23:36.083Z,19.00
2018-07-19T03:26:07.262Z,19.75
2018-07-19T03:28:37.652Z,19.25
2018-07-19T03:31:11.817Z,19.75
2018-07-19T03:33:46.395Z,17.75
2018-07-19T03:36:17.349Z,19.25
2018-07-19T03:38:48.218Z,19.50
2018-07-19T03:41:19.460Z,19.50
2018-07-19T03:43:49.933Z,20.00
2018-07-19T03:46:22.439Z,19.25
2018-07-19T03:48:53.901Z,19.25
2018-07-19T03:51:25.086Z,18.75
2018-07-19T03:53:55.916Z,18.50
2018-07-19T03:56:26.804Z,17.25
2018-07-19T03:58:57.837Z,19.00
2018-07-19T04:01:29.572Z,20.00
2018-07-19T04:04:00.178Z,17.75
2018-07-19T04:06:30.438Z,17.00
2018-07-19T04:09:11.724Z,16.75
2018-07-19T04:11:42.298Z,19.00
2018-07-19T04:14:28.428Z,18.75
2018-07-19T04:16:59.363Z,20.50
2018-07-19T04:19:30.060Z,19.00
2018-07-19T04:22:00.581Z,20.25
2018-07-19T04:24:36.635Z,16.50
2018-07-19T04:29:58.269Z,17.50
2018-07-19T04:32:31.059Z,19.00
2018-07-19T04:35:01.343Z,20.25
2018-07-19T04:37:32.199Z,19.25
2018-07-19T04:40:03.300Z,20.75
2018-07-19T04:42:34.402Z,16.00
2018-07-19T04:45:09.655Z,19.75
2018-07-19T04:47:44.451Z,17.25
2018-07-19T04:50:15.241Z,17.00
2018-07-19T04:52:46.951Z,17.25
2018-07-19T04:55:18.353Z,17.00
2018-07-19T04:57:52.267Z,19.75
2018-07-19T05:00:23.957Z,17.50
2018-07-19T05:02:54.153Z,16.25
2018-07-19T05:05:27.675Z,17.25
2018-07-19T05:07:57.887Z,18.75
2018-07-19T05:10:29.121Z,18.25
2018-07-19T05:13:02.100Z,16.50
2018-07-19T05:15:33.846Z,17.00
2018-07-19T05:18:04.589Z,16.75
2018-07-19T05:20:35.319Z,18.50
2018-07-19T05:23:06.007Z,16.75
2018-07-19T05:25:37.672Z,16.25
2018-07-19T05:28:28.192Z,17.00
2018-07-19T05:30:58.672Z,18.00
2018-07-19T05:33:29.268Z,16.50
2018-07-19T05:36:02.372Z,15.75
2018-07-19T05:38:36.585Z,15.50
2018-07-19T05:41:09.953Z,15.25
2018-07-19T05:43:41.854Z,15.00
2018-07-19T05:46:15.153Z,16.25
2018-07-19T05:48:56.632Z,15.00
2018-07-19T05:51:34.148Z,15.25
2018-07-19T05:54:05.983Z,15.50
2018-07-19T05:56:36.642Z,16.00
2018-07-19T05:59:18.036Z,16.50
2018-07-19T06:01:48.553Z,17.50
2018-07-19T06:04:19.954Z,15.50
2018-07-19T06:06:53.370Z,16.00
2018-07-19T06:09:25.964Z,15.50
2018-07-19T06:11:58.232Z,14.50
2018-07-19T06:14:33.677Z,15.00
2018-07-19T06:17:08.627Z,14.25
2018-07-19T06:19:39.403Z,16.00
2018-07-19T06:22:13.779Z,15.50
2018-07-19T06:24:55.966Z,14.50
2018-07-19T06:27:29.747Z,13.75
2018-07-19T06:33:34.416Z,14.75
2018-07-19T06:36:05.238Z,14.75
2018-07-19T06:38:35.986Z,15.75
2018-07-19T06:41:07.354Z,13.25
2018-07-19T06:43:40.462Z,14.50
2018-07-19T06:46:11.786Z,11.75
2018-07-19T06:48:43.925Z,14.00
2018-07-19T06:51:16.242Z,13.75
2018-07-19T06:53:47.013Z,12.00
2018-07-19T06:56:19.971Z,13.50
2018-07-19T06:58:52.266Z,14.00
2018-07-19T07:01:25.643Z,12.50
2018-07-19T07:03:57.079Z,13.00
2018-07-19T07:06:30.048Z,15.00
2018-07-19T07:09:08.020Z,13.00
2018-07-19T07:11:47.671Z,13.00
2018-07-19T07:14:18.866Z,13.00
2018-07-19T07:16:50.212Z,12.75
2018-07-19T07:19:21.856Z,11.75
2018-07-19T07:21:52.172Z,11.25
2018-07-19T07:24:24.192Z,13.25
2018-07-19T07:27:04.245Z,13.25
2018-07-19T07:29:35.646Z,12.50
2018-07-19T07:32:06.928Z,12.00
2018-07-19T07:34:38.589Z,11.75
2018-07-19T07:37:10.808Z,12.75
2018-07-19T07:39:41.141Z,13.00
2018-07-19T07:42:12.454Z,9.75
2018-07-19T07:44:43.775Z,11.00
2018-07-19T07:47:20.409Z,11.75
2018-07-19T07:49:52.399Z,11.25
2018-07-19T07:52:25.847Z,11.50
2018-07-19T07:54:57.271Z,10.50
2018-07-19T07:57:27.605Z,11.00
2018-07-19T07:59:59.224Z,11.50
2018-07-19T08:02:30.588Z,12.00
2018-07-19T08:05:03.373Z,10.75
2018-07-19T08:07:37.754Z,10.50
2018-07-19T08:10:08.616Z,11.75
2018-07-19T08:12:43.563Z,11.00
2018-07-19T08:15:23.804Z,9.75
2018-07-19T08:17:57.344Z,11.75
2018-07-19T08:20:27.972Z,12.25
2018-07-19T08:22:59.344Z,11.00
2018-07-19T08:25:31.495Z,10.75
2018-07-19T08:28:03.352Z,13.00
2018-07-19T08:30:48.939Z,11.75
2018-07-19T08:33:21.719Z,11.00
2018-07-19T08:35:54.809Z,10.25
2018-07-19T08:38:26.567Z,11.25
2018-07-19T08:40:58.920Z,11.00
2018-07-19T08:43:40.991Z,12.00
2018-07-19T08:46:19.771Z,13.00
2018-07-19T08:49:01.213Z,13.00
2018-07-19T08:51:39.700Z,11.00
2018-07-19T09:01:17.200Z,12.50
2018-07-19T09:04:06.725Z,11.00
2018-07-19T09:06:37.740Z,9.00
2018-07-19T09:09:10.435Z,9.25
2018-07-19T09:11:48.311Z,11.50
2018-07-19T09:14:23.637Z,9.50
2018-07-19T09:16:57.111Z,9.25
2018-07-19T09:19:31.775Z,10.00
2018-07-19T09:22:09.443Z,9.50
2018-07-19T09:24:47.921Z,11.00
2018-07-19T09:27:24.489Z,9.00
2018-07-19T09:29:57.762Z,11.00
2018-07-19T09:32:28.959Z,9.75
2018-07-19T09:35:02.759Z,9.75
2018-07-19T09:37:34.660Z,11.50
2018-07-19T09:40:22.534Z,11.00
2018-07-19T09:43:20.180Z,10.75
2018-07-19T09:46:02.635Z,11.75
2018-07-19T09:48:36.776Z,10.00
2018-07-19T09:51:22.193Z,10.00
2018-07-19T09:53:56.570Z,9.50
2018-07-19T09:56:28.355Z,9.25
2018-07-19T09:59:16.411Z,9.00
2018-07-19T10:01:53.985Z,9.00
2018-07-19T10:04:30.590Z,8.50
2018-07-19T10:07:04.571Z,7.50
2018-07-19T10:09:39.099Z,8.75
2018-07-19T10:12:24.558Z,9.00
2018-07-19T10:14:55.973Z,9.00
2018-07-19T10:17:29.072Z,9.00
2018-07-19T10:20:01.331Z,9.00
2018-07-19T10:22:37.138Z,9.00
2018-07-19T10:25:08.772Z,7.75
2018-07-19T10:27:39.790Z,10.00
2018-07-19T10:30:10.134Z,7.75
2018-07-19T10:32:50.366Z,10.00
2018-07-19T10:35:24.135Z,10.50
2018-07-19T10:38:03.084Z,10.50
2018-07-19T10:40:37.417Z,9.00
2018-07-19T10:43:12.062Z,10.00
2018-07-19T10:45:45.280Z,9.25
2018-07-19T10:48:17.209Z,10.00
2018-07-19T10:51:04.677Z,11.00
2018-07-19T10:53:37.487Z,12.50
2018-07-19T10:56:32.556Z,11.00
2018-07-19T10:59:07.280Z,12.00
2018-07-19T11:01:43.760Z,13.75
2018-07-19T11:04:14.345Z,12.25
2018-07-19T11:06:49.832Z,12.75
2018-07-19T11:09:20.781Z,14.00
2018-07-19T11:11:52.858Z,14.25
2018-07-19T11:14:24.430Z,14.00
2018-07-19T11:16:54.831Z,15.25
2018-07-19T11:19:30.594Z,14.00
2018-07-19T11:22:02.258Z,13.25
2018-07-19T11:24:42.184Z,13.00
2018-07-19T11:27:20.570Z,13.50
2018-07-19T11:29:52.738Z,12.25
2018-07-19T11:32:29.779Z,12.00
2018-07-19T11:35:03.424Z,11.75
2018-07-19T11:37:40.866Z,14.00
2018-07-19T11:40:15.638Z,12.75
2018-07-19T11:42:46.151Z,11.00
2018-07-19T11:45:18.434Z,11.75
2018-07-19T11:47:50.425Z,10.00
2018-07-19T11:50:28.475Z,11.75
2018-07-19T11:53:00.362Z,13.00
2018-07-19T11:55:39.305Z,12.50
2018-07-19T11:58:11.655Z,13.75
2018-07-19T12:00:47.315Z,12.50
2018-07-19T12:03:22.578Z,12.00
2018-07-19T12:05:53.232Z,13.75
2018-07-19T12:08:29.152Z,11.75
2018-07-19T12:11:07.918Z,14.00
2018-07-19T12:13:41.072Z,13.50
2018-07-19T12:16:13.085Z,13.75
2018-07-19T12:18:44.639Z,15.75
2018-07-19T12:21:30.860Z,14.00
2018-07-19T12:24:05.483Z,14.00
2018-07-19T12:26:39.381Z,15.00
2018-07-19T12:29:14.005Z,13.75
2018-07-19T12:31:56.575Z,13.00
2018-07-19T12:34:38.513Z,12.25
2018-07-19T12:37:15.956Z,13.25
2018-07-19T12:42:56.671Z,12.75
2018-07-19T12:45:28.750Z,15.75
2018-07-19T12:48:10.697Z,16.00
2018-07-19T12:50:47.099Z,15.75
2018-07-19T12:53:51.920Z,17.00
2018-07-19T12:56:24.741Z,19.50
2018-07-19T13:02:12.264Z,16.75
2018-07-19T13:04:55.659Z,17.00
2018-07-19T13:07:32.738Z,17.25
2018-07-19T13:10:05.240Z,16.25
2018-07-19T13:12:39.820Z,17.25
2018-07-19T13:17:47.558Z,18.50
2018-07-19T13:20:24.073Z,18.00
2018-07-19T13:23:00.777Z,19.00
2018-07-19T13:25:33.648Z,17.75
2018-07-19T13:28:03.934Z,17.75
2018-07-19T13:30:35.170Z,18.00
2018-07-19T13:33:07.947Z,17.00
2018-07-19T13:36:11.569Z,19.00
2018-07-19T13:38:42.346Z,18.50
2018-07-19T13:41:15.424Z,19.50
2018-07-19T13:43:47.601Z,18.75
2018-07-19T13:46:18.697Z,17.50
2018-07-19T13:48:50.369Z,17.00
2018-07-19T13:51:28.618Z,15.00
2018-07-19T13:54:47.515Z,16.25
2018-07-19T13:57:17.768Z,14.50
2018-07-19T14:00:07.514Z,17.00
2018-07-19T14:02:42.708Z,17.00
2018-07-19T14:05:15.572Z,16.50
2018-07-19T14:07:51.483Z,19.00
2018-07-19T14:10:22.574Z,16.25
2018-07-19T14:12:54.455Z,17.50
2018-07-19T14:15:25.402Z,15.00
2018-07-19T14:18:00.488Z,18.50
2018-07-19T14:26:17.757Z,16.00
2018-07-19T14:28:57.631Z,20.75
2018-07-19T14:31:33.061Z,19.25
2018-07-19T14:34:04.520Z,18.75
2018-07-19T14:36:36.321Z,18.25
2018-07-19T14:39:13.174Z,19.75
2018-07-19T14:41:59.194Z,17.25
2018-07-19T14:44:35.299Z,18.25
2018-07-19T14:47:21.318Z,18.25
2018-07-19T14:49:51.659Z,19.50
2018-07-19T14:52:23.811Z,18.25
2018-07-19T14:55:05.280Z,19.75
2018-07-19T14:57:38.094Z,18.00
2018-07-19T15:00:16.234Z,17.25
2018-07-19T15:02:48.691Z,19.00
2018-07-19T15:05:22.098Z,17.00
2018-07-19T15:07:55.522Z,17.50
2018-07-19T15:10:27.407Z,18.50
2018-07-19T15:12:59.975Z,17.50
2018-07-19T15:15:41.572Z,19.00
2018-07-19T15:18:13.885Z,18.00
2018-07-19T15:20:46.440Z,18.50
2018-07-19T15:23:18.992Z,17.25
2018-07-19T15:25:49.859Z,19.00
2018-07-19T15:28:20.737Z,18.75
2018-07-19T15:30:51.229Z,19.00
2018-07-19T15:33:25.441Z,20.00
2018-07-19T15:36:01.994Z,17.50
2018-07-19T15:38:37.188Z,18.25
2018-07-19T15:41:12.404Z,19.00
2018-07-19T15:43:47.413Z,19.00
2018-07-19T15:46:23.109Z,18.50
2018-07-19T15:48:56.427Z,18.25
2018-07-19T15:51:35.577Z,19.75
2018-07-19T15:54:09.296Z,19.00
2018-07-19T15:56:42.423Z,19.00
2018-07-19T15:59:14.266Z,18.75
2018-07-19T16:01:48.201Z,19.00
2018-07-19T16:04:21.485Z,20.00
2018-07-19T16:06:52.783Z,19.00
2018-07-19T16:09:25.523Z,20.25
2018-07-19T16:12:06.671Z,19.50
2018-07-19T16:14:40.548Z,19.75
2018-07-19T16:17:18.885Z,19.00
2018-07-19T16:19:57.312Z,19.00
2018-07-19T16:22:31.892Z,19.00
2018-07-19T16:25:08.217Z,20.00
2018-07-19T16:27:44.297Z,20.75
2018-07-19T16:30:18.087Z,19.00
2018-07-19T16:32:50.367Z,19.50
2018-07-19T16:35:22.142Z,20.00
2018-07-19T16:37:56.492Z,19.25
2018-07-19T16:40:28.043Z,18.25
2018-07-19T16:43:08.578Z,19.50
2018-07-19T16:45:45.534Z,19.00
2018-07-19T16:48:19.875Z,19.75
2018-07-19T16:50:52.173Z,21.00
2018-07-19T16:53:23.935Z,20.75
2018-07-19T16:55:56.751Z,18.25
2018-07-19T16:58:28.149Z,21.00
2018-07-19T17:00:59.553Z,19.00
2018-07-19T17:03:31.436Z,20.25
2018-07-19T17:08:29.029Z,21.00
2018-07-19T17:10:59.404Z,20.25
2018-07-19T17:13:37.530Z,20.75
2018-07-19T17:16:12.973Z,20.75
2018-07-19T17:18:48.374Z,20.50
2018-07-19T17:21:27.733Z,20.50
2018-07-19T17:23:58.642Z,20.25
2018-07-19T17:26:29.025Z,21.50
2018-07-19T17:29:00.579Z,21.00
2018-07-19T17:34:15.315Z,21.00
2018-07-19T17:36:47.211Z,20.00
2018-07-19T17:39:19.282Z,20.00
2018-07-19T17:41:53.223Z,20.25
2018-07-19T17:44:30.945Z,21.00
2018-07-19T17:47:02.608Z,20.75
2018-07-19T17:49:37.323Z,21.00
2018-07-19T17:52:08.632Z,19.00
2018-07-19T17:54:41.728Z,19.00
2018-07-19T17:57:12.988Z,20.25
2018-07-19T17:59:44.432Z,20.00
2018-07-19T18:02:17.413Z,20.50
2018-07-19T18:04:50.466Z,20.50
2018-07-19T18:07:26.465Z,20.00
2018-07-19T18:09:59.492Z,21.00
2018-07-19T18:12:33.772Z,20.50
2018-07-19T18:15:09.149Z,19.75
2018-07-19T18:17:55.179Z,20.00
2018-07-19T18:20:31.019Z,20.00
2018-07-19T18:23:08.388Z,19.50
2018-07-19T18:25:43.411Z,19.50
2018-07-19T18:28:15.950Z,20.50
2018-07-19T18:34:35.263Z,19.00
2018-07-19T18:37:09.830Z,20.00
2018-07-19T18:39:41.540Z,19.00
2018-07-19T18:42:14.944Z,19.50
2018-07-19T18:44:47.176Z,19.00
2018-07-19T18:47:18.337Z,19.00
2018-07-19T18:49:50.477Z,20.25
2018-07-19T18:52:21.231Z,19.00
2018-07-19T18:54:54.049Z,19.75
2018-07-19T18:57:25.496Z,20.00
2018-07-19T18:59:58.217Z,19.00
2018-07-19T19:02:29.906Z,19.00
2018-07-19T19:05:04.515Z,19.50
2018-07-19T19:07:36.185Z,20.50
2018-07-19T19:10:08.619Z,20.00
2018-07-19T19:12:43.054Z,20.00
2018-07-19T19:15:19.095Z,20.00
2018-07-19T19:17:51.454Z,19.00
2018-07-19T19:20:34.044Z,19.25
2018-07-19T19:23:21.414Z,19.50
2018-07-19T19:25:53.240Z,20.25
2018-07-19T19:28:30.203Z,18.25
2018-07-19T19:31:04.561Z,19.00
2018-07-19T19:33:39.944Z,18.50
2018-07-19T19:36:18.920Z,20.00
2018-07-19T19:38:50.311Z,20.00
2018-07-19T19:41:22.144Z,20.00
2018-07-19T19:43:56.429Z,19.00
2018-07-19T19:46:28.083Z,19.00
2018-07-19T19:49:00.102Z,19.00
2018-07-19T19:51:31.546Z,20.50
2018-07-19T19:54:02.706Z,19.00
2018-07-19T19:56:34.508Z,21.00
2018-07-19T19:59:05.506Z,20.75
2018-07-19T20:01:37.290Z,20.00
2018-07-19T20:04:09.213Z,18.75
2018-07-19T20:06:40.460Z,21.00
2018-07-19T20:13:34.448Z,19.50
2018-07-19T20:16:07.275Z,19.25
2018-07-19T20:18:44.290Z,18.75
2018-07-19T20:21:21.725Z,19.00
2018-07-19T20:23:56.392Z,20.00
2018-07-19T20:26:29.327Z,19.25
2018-07-19T20:29:03.149Z,17.75
2018-07-19T20:31:36.226Z,19.75
2018-07-19T20:34:13.312Z,20.00
2018-07-19T20:36:43.639Z,21.00
2018-07-19T20:39:20.115Z,21.50
2018-07-19T20:41:53.627Z,20.25
2018-07-19T20:44:23.899Z,20.75
2018-07-19T20:47:04.548Z,20.00
2018-07-19T20:49:35.496Z,19.25
2018-07-19T20:52:10.188Z,21.00
2018-07-19T20:54:40.869Z,21.00
2018-07-19T20:57:19.150Z,21.00
2018-07-19T20:59:50.006Z,20.00
2018-07-19T21:02:24.059Z,19.50
2018-07-19T21:04:55.385Z,19.75
2018-07-19T21:07:28.464Z,18.00
2018-07-19T21:10:00.751Z,18.50
2018-07-19T21:12:33.982Z,19.00
2018-07-19T21:15:08.685Z,17.25
2018-07-19T21:17:42.228Z,17.75
2018-07-19T21:20:15.473Z,18.00
2018-07-19T21:22:46.822Z,17.00
2018-07-19T21:25:17.818Z,19.00
2018-07-19T21:27:54.080Z,16.25
2018-07-19T21:30:26.502Z,18.75
2018-07-19T21:32:57.954Z,16.75
2018-07-19T21:35:29.324Z,15.75
2018-07-19T21:38:01.331Z,15.75
2018-07-19T21:40:31.940Z,15.75
2018-07-19T21:43:03.670Z,13.50
2018-07-19T21:45:36.906Z,14.75
2018-07-19T21:48:16.638Z,14.00
2018-07-19T21:50:48.914Z,12.75
2018-07-19T21:53:22.095Z,14.25
2018-07-19T21:55:55.065Z,12.75
2018-07-19T21:58:34.391Z,11.50
2018-07-19T22:01:12.187Z,13.25
2018-07-19T22:03:45.508Z,12.75
2018-07-19T22:06:20.367Z,11.75
2018-07-19T22:08:51.537Z,11.25
2018-07-19T22:11:25.191Z,12.25
2018-07-19T22:13:58.935Z,13.00
2018-07-19T22:16:30.173Z,13.25
2018-07-19T22:19:02.583Z,12.50
2018-07-19T22:24:54.599Z,13.50
2018-07-19T22:27:26.261Z,11.75
2018-07-19T22:30:01.154Z,11.75
2018-07-19T22:32:41.571Z,8.75
2018-07-19T22:35:14.509Z,8.25
2018-07-19T22:37:46.227Z,11.00
2018-07-19T22:40:18.077Z,10.75
2018-07-19T22:42:51.158Z,8.25
2018-07-19T22:45:25.009Z,9.75
2018-07-19T22:47:57.459Z,10.25
2018-07-19T22:50:30.277Z,10.25
2018-07-19T22:53:03.716Z,9.75
2018-07-19T22:55:36.197Z,9.25
2018-07-19T22:58:08.751Z,9.75
2018-07-19T23:00:40.664Z,9.75
2018-07-19T23:03:19.764Z,9.00
2018-07-19T23:05:52.141Z,10.25
2018-07-19T23:08:23.989Z,8.50
2018-07-19T23:10:55.354Z,9.25
2018-07-19T23:13:29.991Z,11.25
2018-07-19T23:16:03.076Z,8.50
2018-07-19T23:18:34.759Z,11.00
2018-07-19T23:21:07.788Z,9.00
2018-07-19T23:23:39.149Z,10.50
2018-07-19T23:26:11.491Z,10.25
2018-07-19T23:28:42.315Z,10.00
2018-07-19T23:31:14.041Z,10.00
2018-07-19T23:33:45.812Z,11.00
2018-07-19T23:36:21.311Z,9.00
2018-07-19T23:39:10.738Z,9.00
2018-07-19T23:41:59.238Z,9.50
2018-07-19T23:44:38.280Z,9.00
2018-07-19T23:47:13.436Z,9.50
2018-07-19T23:49:45.341Z,9.00
2018-07-19T23:52:16.840Z,10.00
2018-07-19T23:54:47.109Z,9.00
2018-07-19T23:57:17.488Z,8.75
2018-07-19T23:59:49.171Z,9.75
